Time;durP1;ratioP1;P1;durP2;ratioP2;P2;SDS_P1;SDS_P2;PMS_P1;PMS_P2;Temp;Humidity;BMP_temperature;BMP_pressure;BME280_temperature;BME280_humidity;BME280_pressure;Samples;Min_cycle;Max_cycle;Signal;HPM_P1;HPM_P2
2021/03/20 00:00:36;;;;;;;10.68;6.60;;;;;;;-2.39;85.17;99616.19;6145778;23;20005;-71
2021/03/20 00:03:01;;;;;;;10.40;6.13;;;;;;;-2.35;85.15;99609.59;6149502;23;20005;-71
2021/03/20 00:05:27;;;;;;;14.45;7.20;;;;;;;-2.46;86.00;99624.34;6150102;23;20099;-71
2021/03/20 00:07:54;;;;;;;10.60;6.75;;;;;;;-2.41;85.67;99620.34;6124799;23;20002;-71
2021/03/20 00:10:21;;;;;;;12.52;7.28;;;;;;;-2.26;85.63;99619.31;6153095;23;20005;-71
2021/03/20 00:12:48;;;;;;;9.77;6.85;;;;;;;-1.98;87.92;99622.31;6153973;23;20001;-71
2021/03/20 00:15:15;;;;;;;14.40;7.35;;;;;;;-2.23;85.82;99624.50;6154119;23;20009;-71
2021/03/20 00:17:41;;;;;;;12.52;7.07;;;;;;;-2.05;87.64;99622.81;6153982;23;20337;-71
2021/03/20 00:20:10;;;;;;;15.60;8.48;;;;;;;-2.21;86.14;99628.00;6154464;23;20036;-69
2021/03/20 00:22:35;;;;;;;15.20;8.23;;;;;;;-2.17;87.13;99619.75;6153926;23;20076;-69
2021/03/20 00:25:00;;;;;;;13.40;8.50;;;;;;;-2.09;87.36;99623.47;6154020;23;20506;-69
2021/03/20 00:27:26;;;;;;;12.07;7.75;;;;;;;-2.28;85.61;99625.97;6127973;23;20072;-69
2021/03/20 00:29:51;;;;;;;15.13;8.25;;;;;;;-2.34;86.90;99622.34;6154006;23;20001;-69
2021/03/20 00:32:16;;;;;;;15.95;8.43;;;;;;;-2.49;85.75;99621.63;6153731;23;20006;-69
2021/03/20 00:34:42;;;;;;;13.07;7.82;;;;;;;-2.58;86.28;99632.22;6153880;23;20017;-69
2021/03/20 00:37:08;;;;;;;18.30;9.18;;;;;;;-2.51;86.75;99623.25;6153933;23;20009;-68
2021/03/20 00:39:33;;;;;;;14.07;8.30;;;;;;;-2.55;86.86;99626.44;6154317;23;20297;-69
2021/03/20 00:41:59;;;;;;;13.43;8.48;;;;;;;-2.49;88.42;99631.78;6153794;23;20008;-69
2021/03/20 00:44:25;;;;;;;13.20;7.93;;;;;;;-2.52;86.97;99624.00;6154168;23;20002;-69
2021/03/20 00:46:50;;;;;;;13.82;7.50;;;;;;;-2.55;86.75;99626.44;6153945;23;19994;-69
2021/03/20 00:49:16;;;;;;;12.20;8.07;;;;;;;-2.54;87.51;99615.47;6153909;23;20036;-69
2021/03/20 00:51:41;;;;;;;10.80;7.82;;;;;;;-2.55;87.10;99621.34;6153745;23;20052;-69
2021/03/20 00:54:06;;;;;;;17.02;8.52;;;;;;;-2.44;88.59;99617.66;6153918;23;20006;-69
2021/03/20 00:56:32;;;;;;;16.65;7.30;;;;;;;-2.60;86.60;99617.72;6153877;23;20013;-69
2021/03/20 00:58:58;;;;;;;12.48;6.68;;;;;;;-2.46;86.73;99616.72;6153899;23;20001;-69
2021/03/20 08:00:30;;;;;;;3.55;2.90;;;;;;;0.93;56.29;99815.00;6118684;23;20964;-70
2021/03/20 08:03:13;;;;;;;7.20;2.78;;;;;;;0.79;55.26;99818.72;6184216;23;20051;-69
2021/03/20 08:05:38;;;;;;;4.20;2.85;;;;;;;1.20;55.15;99823.66;6184404;23;20490;-69
2021/03/20 08:08:25;;;;;;;6.95;2.50;;;;;;;0.75;52.05;99827.94;6184374;23;20001;-69
2021/03/20 08:10:53;;;;;;;4.65;2.65;;;;;;;0.84;52.52;99829.97;6175540;23;20025;-69
2021/03/20 08:13:39;;;;;;;2.63;2.42;;;;;;;0.97;52.72;99840.69;6154626;23;20429;-72
2021/03/20 08:18:43;;;;;;;2.95;2.40;;;;;;;1.90;48.53;99826.94;6184514;23;20017;-69
2021/03/20 08:21:21;;;;;;;4.13;2.30;;;;;;;2.74;46.21;99815.13;6184317;23;20001;-70
2021/03/20 08:24:14;;;;;;;2.55;2.25;;;;;;;6.48;38.74;99797.84;6184352;23;20009;-70
2021/03/20 08:26:48;;;;;;;2.72;1.90;;;;;;;8.94;33.19;99790.88;6177332;23;20428;-70
2021/03/20 08:29:32;;;;;;;2.95;1.67;;;;;;;8.76;32.91;99801.16;6154546;23;20012;-71
2021/03/20 08:31:57;;;;;;;4.05;1.85;;;;;;;8.31;32.17;99805.09;6154269;23;20441;-71
2021/03/20 08:34:38;;;;;;;2.92;2.35;;;;;;;6.65;33.78;99819.59;6154468;23;20025;-71
2021/03/20 08:37:45;;;;;;;2.20;2.00;;;;;;;6.30;35.58;99825.06;6154269;23;20056;-70
2021/03/20 08:40:27;;;;;;;2.72;2.20;;;;;;;5.30;34.35;99831.78;6114323;23;20041;-70
2021/03/20 08:43:18;;;;;;;3.50;2.05;;;;;;;7.96;32.58;99823.72;6154256;23;20001;-70
2021/03/20 08:45:49;;;;;;;2.67;1.98;;;;;;;6.51;34.17;99839.97;6154282;23;20088;-70
2021/03/20 08:48:40;;;;;;;7.55;1.92;;;;;;;6.99;32.43;99845.81;6154227;23;20076;-71
2021/03/20 08:51:24;;;;;;;1.83;1.63;;;;;;;10.43;28.68;99843.88;6152643;23;20041;-71
2021/03/20 08:54:03;;;;;;;4.72;1.88;;;;;;;9.86;28.05;99844.66;6154350;23;20009;-71
2021/03/20 08:56:37;;;;;;;5.90;1.73;;;;;;;8.23;30.14;99858.41;6155806;23;20005;-71
2021/03/20 08:59:22;;;;;;;2.42;1.65;;;;;;;9.11;29.59;99836.66;6098079;23;20109;-71
2021/03/20 09:02:24;;;;;;;2.83;2.03;;;;;;;9.70;27.87;99833.41;6126279;23;20029;-71
2021/03/20 09:04:57;;;;;;;4.07;2.08;;;;;;;10.67;28.73;99826.59;6126629;23;20061;-71
2021/03/20 09:07:37;;;;;;;2.17;1.88;;;;;;;12.21;25.36;99838.03;6126636;23;20005;-71
2021/03/20 09:10:04;;;;;;;;;;;;;;;11.15;25.89;99835.13;6127136;23;20006;-70
2021/03/20 09:12:33;;;;;;;3.45;1.73;;;;;;;10.15;28.16;99844.69;6126568;23;20313;-70
2021/03/20 09:14:59;;;;;;;2.17;1.85;;;;;;;10.57;28.38;99830.06;6126554;23;20006;-71
2021/03/20 09:17:31;;;;;;;2.67;1.88;;;;;;;8.48;30.95;99851.75;6126439;23;20025;-72
2021/03/20 09:20:10;;;;;;;2.38;1.77;;;;;;;10.23;27.28;99855.94;6126576;23;20016;-70
2021/03/20 09:22:42;;;;;;;1.83;1.70;;;;;;;7.99;30.04;99854.75;6126392;23;20002;-70
2021/03/20 09:25:19;;;;;;;1.90;1.60;;;;;;;4.77;34.61;99867.44;6125475;23;20353;-70
2021/03/20 09:28:10;;;;;;;2.05;1.67;;;;;;;11.68;27.42;99847.00;6126807;23;20013;-70
2021/03/20 09:30:45;;;;;;;3.00;1.63;;;;;;;10.41;27.56;99856.00;6126386;23;20345;-71
2021/03/20 09:33:19;;;;;;;2.40;1.90;;;;;;;11.19;26.59;99842.03;6100494;23;20085;-71
2021/03/20 09:35:47;;;;;;;3.67;2.65;;;;;;;11.59;25.43;99843.56;6122856;23;20034;-71
2021/03/20 09:38:33;;;;;;;3.90;1.75;;;;;;;11.63;25.71;99843.56;6124081;23;19998;-70
2021/03/20 09:41:00;;;;;;;1.80;1.58;;;;;;;14.43;22.86;99822.38;6125392;23;20345;-71
2021/03/20 09:43:34;;;;;;;2.58;1.38;;;;;;;14.43;20.97;99833.66;6126152;23;20013;-71
2021/03/20 09:46:27;;;;;;;2.00;1.58;;;;;;;11.93;24.98;99838.22;6126093;23;20341;-71
2021/03/20 09:48:54;;;;;;;3.17;1.45;;;;;;;10.29;26.67;99837.84;6126516;23;20013;-70
2021/03/20 09:51:47;;;;;;;2.38;1.73;;;;;;;9.51;27.44;99846.28;6125872;23;20002;-70
2021/03/20 09:54:21;;;;;;;3.25;2.13;;;;;;;11.20;25.95;99841.16;6126253;23;20048;-70
2021/03/20 09:56:48;;;;;;;4.60;1.92;;;;;;;11.56;26.24;99838.41;6125898;23;20002;-70
2021/03/20 09:59:36;;;;;;;1.98;1.60;;;;;;;7.65;29.24;99852.66;6125917;23;20010;-71
2021/03/20 10:02:08;;;;;;;2.88;1.48;;;;;;;8.44;28.16;99858.59;6125854;23;20077;-70
2021/03/20 10:04:52;;;;;;;2.92;1.45;;;;;;;8.07;25.42;99846.19;6126025;23;20591;-70
2021/03/20 10:07:20;;;;;;;2.20;1.38;;;;;;;10.17;23.70;99830.91;6125669;23;20006;-70
2021/03/20 10:10:27;;;;;;;3.00;1.65;;;;;;;10.30;23.00;99837.00;6125801;23;20005;-70
2021/03/20 10:13:01;;;;;;;1.38;1.27;;;;;;;10.67;23.68;99827.44;6125631;23;20013;-71
2021/03/20 10:15:34;;;;;;;4.90;1.65;;;;;;;10.02;22.91;99834.34;6125912;23;20077;-70
2021/03/20 10:18:00;;;;;;;3.45;1.60;;;;;;;9.92;25.50;99835.19;6125549;23;20104;-71
2021/03/20 10:20:34;;;;;;;2.10;1.27;;;;;;;10.09;24.73;99834.34;6125772;23;20393;-70
2021/03/20 10:23:02;;;;;;;2.65;1.40;;;;;;;13.84;21.43;99814.59;6125870;23;20057;-71
2021/03/20 10:25:30;;;;;;;1.45;1.20;;;;;;;14.57;18.86;99816.06;6125859;23;20006;-71
2021/03/20 10:28:02;;;;;;;2.00;1.50;;;;;;;12.24;20.99;99822.44;6125740;23;20049;-72
2021/03/20 10:30:31;;;;;;;4.30;1.40;;;;;;;15.26;19.38;99816.50;6125635;23;20072;-72
2021/03/20 10:33:02;;;;;;;1.73;1.38;;;;;;;15.06;19.09;99817.75;6126020;23;20040;-72
2021/03/20 10:35:30;;;;;;;2.25;1.38;;;;;;;13.91;19.87;99829.25;6125773;23;20398;-72
2021/03/20 10:37:56;;;;;;;1.40;1.30;;;;;;;10.04;24.06;99849.88;6125645;23;19998;-71
2021/03/20 10:40:28;;;;;;;1.67;1.30;;;;;;;12.73;21.97;99829.81;6125710;23;20036;-71
2021/03/20 10:43:01;;;;;;;1.75;1.30;;;;;;;11.24;20.75;99840.28;6099648;23;20337;-71
2021/03/20 10:45:53;;;;;;;1.27;1.10;;;;;;;9.91;24.68;99838.66;6125591;23;20073;-71
2021/03/20 10:48:28;;;;;;;2.10;1.10;;;;;;;12.32;23.72;99810.22;6118719;23;20006;-70
2021/03/20 10:51:00;;;;;;;1.40;1.27;;;;;;;15.52;19.60;99819.44;6125491;23;20323;-70
2021/03/20 10:53:47;;;;;;;5.05;1.50;;;;;;;14.10;19.13;99808.97;6125467;23;19998;-71
2021/03/20 10:56:35;;;;;;;2.35;1.50;;;;;;;13.91;20.07;99808.41;6124426;23;20006;-71
2021/03/20 10:59:15;;;;;;;2.83;1.27;;;;;;;14.83;18.54;99799.06;6125544;23;20009;-71
2021/03/20 11:01:41;;;;;;;3.00;1.50;;;;;;;13.04;20.80;99807.78;6125270;23;20057;-70
2021/03/20 11:04:13;;;;;;;1.80;1.48;;;;;;;11.85;21.87;99813.22;6125524;23;20010;-71
2021/03/20 11:06:39;;;;;;;3.83;3.00;;;;;;;12.18;23.58;99796.50;6125410;23;19998;-70
2021/03/20 11:09:10;;;;;;;1.73;1.33;;;;;;;14.57;19.68;99789.97;6125246;23;20002;-70
2021/03/20 11:11:38;;;;;;;2.55;2.05;;;;;;;14.48;21.07;99805.78;6099312;23;20080;-70
2021/03/20 11:14:03;;;;;;;4.57;1.45;;;;;;;14.80;21.30;99801.75;6125354;23;20005;-70
2021/03/20 11:16:29;;;;;;;4.00;1.52;;;;;;;12.46;20.95;99816.16;6124918;23;20448;-70
2021/03/20 11:19:02;;;;;;;4.07;1.60;;;;;;;9.56;23.25;99835.09;6125230;23;20084;-70
2021/03/20 11:21:40;;;;;;;2.92;1.90;;;;;;;10.34;22.22;99828.34;6125247;23;20010;-70
2021/03/20 11:24:28;;;;;;;2.30;1.67;;;;;;;10.16;23.43;99824.00;6125199;23;20002;-70
2021/03/20 11:26:56;;;;;;;2.45;1.42;;;;;;;11.10;22.47;99822.16;6125084;23;20032;-71
2021/03/20 11:29:27;;;;;;;5.18;1.50;;;;;;;11.24;21.79;99822.97;6124996;23;20005;-70
2021/03/20 11:31:58;;;;;;;1.45;1.20;;;;;;;10.73;23.17;99831.75;6125052;23;20028;-70
2021/03/20 11:34:29;;;;;;;1.40;1.30;;;;;;;13.09;21.08;99811.19;6125126;23;20426;-70
2021/03/20 11:36:56;;;;;;;3.30;1.50;;;;;;;14.07;19.64;99809.03;6125086;23;19994;-70
2021/03/20 11:39:22;;;;;;;2.63;1.45;;;;;;;12.93;21.06;99808.78;6125331;23;20132;-71
2021/03/20 11:41:59;;;;;;;5.63;1.20;;;;;;;13.36;20.24;99811.78;6125031;23;20080;-70
2021/03/20 11:44:27;;;;;;;4.75;2.10;;;;;;;11.65;21.34;99805.47;6125051;23;20012;-71
2021/03/20 11:47:01;;;;;;;1.65;1.30;;;;;;;12.12;21.28;99797.41;6124890;23;20080;-71
2021/03/20 11:49:45;;;;;;;3.10;1.27;;;;;;;11.36;21.36;99803.88;6125140;23;20006;-70
2021/03/20 11:52:15;;;;;;;3.83;1.60;;;;;;;10.52;23.61;99797.25;6124952;23;20073;-71
2021/03/20 11:54:42;;;;;;;3.45;1.80;;;;;;;11.20;21.63;99800.50;6125409;23;20448;-70
2021/03/20 11:57:30;;;;;;;2.40;1.65;;;;;;;7.39;27.51;99811.09;6124969;23;19998;-70
2021/03/20 11:59:56;;;;;;;2.38;1.70;;;;;;;9.51;24.57;99799.72;6125343;23;20083;-70
2021/03/20 12:02:24;;;;;;;2.42;1.98;;;;;;;6.53;28.03;99807.41;6099006;23;20037;-71
2021/03/20 12:05:14;;;;;;;2.17;1.70;;;;;;;11.67;23.31;99767.41;6125359;23;20103;-72
2021/03/20 12:07:41;;;;;;;2.67;1.73;;;;;;;12.61;22.16;99776.16;6124846;23;20016;-72
2021/03/20 12:10:23;;;;;;;2.50;1.70;;;;;;;11.89;22.63;99774.19;6125055;23;20006;-71
2021/03/20 12:12:54;;;;;;;3.70;1.75;;;;;;;11.67;23.52;99775.19;6125129;23;19998;-72
2021/03/20 12:15:23;;;;;;;2.38;1.98;;;;;;;8.49;24.88;99788.91;6125098;23;20040;-72
2021/03/20 12:17:49;;;;;;;3.72;2.30;;;;;;;7.93;25.85;99797.91;6124621;23;20017;-72
2021/03/20 12:20:30;;;;;;;5.55;2.00;;;;;;;8.19;26.68;99789.53;6124552;23;20503;-72
2021/03/20 12:22:55;;;;;;;2.75;1.90;;;;;;;7.62;27.80;99801.03;6099057;23;20460;-72
2021/03/20 12:25:39;;;;;;;2.33;2.10;;;;;;;6.29;29.41;99792.47;6125175;23;20005;-72
2021/03/20 12:28:26;;;;;;;2.55;1.95;;;;;;;7.05;28.05;99786.63;6124746;23;20322;-72
2021/03/20 12:31:07;;;;;;;24.15;13.77;;;;;;;6.57;28.93;99782.56;6123968;23;20433;-73
2021/03/20 12:33:57;;;;;;;2.38;1.75;;;;;;;7.16;30.46;99779.91;6125066;23;20002;-73
2021/03/20 12:36:48;;;;;;;5.70;1.80;;;;;;;7.04;30.50;99769.44;6124499;23;20081;-73
2021/03/20 12:39:17;;;;;;;3.00;2.00;;;;;;;7.41;30.26;99774.19;6124642;23;20095;-70
2021/03/20 12:41:47;;;;;;;3.20;2.35;;;;;;;6.70;30.50;99769.00;6098765;23;20001;-72
2021/03/20 12:44:27;;;;;;;3.95;1.98;;;;;;;6.28;30.09;99776.97;6124713;23;20030;-72
2021/03/20 12:46:54;;;;;;;;;;;;;;;4.99;32.37;99781.50;6124987;23;20006;-72
2021/03/20 12:49:23;;;;;;;4.75;2.20;;;;;;;5.63;31.65;99769.88;6124621;23;19976;-72
2021/03/20 12:51:53;;;;;;;3.50;2.58;;;;;;;6.28;30.56;99759.81;6124290;23;20318;-72
2021/03/20 12:54:26;;;;;;;2.70;2.03;;;;;;;5.78;31.30;99764.13;6098619;23;20038;-72
2021/03/20 12:56:51;;;;;;;3.65;2.47;;;;;;;5.61;31.75;99759.56;6098452;23;20008;-72
2021/03/20 12:59:17;;;;;;;2.22;1.90;;;;;;;4.98;33.25;99766.91;6124551;23;20037;-73
2021/03/20 13:01:42;;;;;;;6.05;2.22;;;;;;;5.30;31.82;99767.53;6124320;23;20002;-72
2021/03/20 13:04:12;;;;;;;2.08;1.95;;;;;;;4.99;34.51;99773.78;6124631;23;20017;-72
2021/03/20 13:06:37;;;;;;;4.82;2.33;;;;;;;4.82;35.51;99753.75;6124755;23;20002;-72
2021/03/20 13:09:03;;;;;;;4.13;2.08;;;;;;;5.23;34.54;99761.44;6124690;23;20002;-72
2021/03/20 13:11:28;;;;;;;4.30;2.30;;;;;;;4.69;35.02;99756.91;6124289;23;20006;-73
2021/03/20 13:13:54;;;;;;;3.53;2.35;;;;;;;4.77;34.08;99757.94;6124505;23;20029;-75
2021/03/20 13:16:20;;;;;;;3.38;2.10;;;;;;;5.05;33.26;99750.78;6124444;23;20005;-73
2021/03/20 13:18:45;;;;;;;2.50;2.30;;;;;;;6.17;32.53;99740.78;6124504;23;20426;-73
2021/03/20 13:21:11;;;;;;;2.65;2.42;;;;;;;5.21;33.21;99747.69;6124238;23;20041;-73
2021/03/20 13:23:36;;;;;;;2.90;2.30;;;;;;;4.25;35.81;99754.19;6124546;23;20012;-73
2021/03/20 13:26:02;;;;;;;4.18;2.60;;;;;;;5.09;36.43;99747.44;6124488;23;20089;-76
2021/03/20 13:28:27;;;;;;;3.83;2.58;;;;;;;5.11;34.52;99740.63;6124271;23;20002;-75
2021/03/20 13:30:53;;;;;;;3.58;2.65;;;;;;;5.87;34.89;99720.56;6121038;23;20006;-75
2021/03/20 13:33:18;;;;;;;4.53;2.67;;;;;;;5.65;34.91;99724.47;6124490;23;20453;-78
2021/03/20 13:35:44;;;;;;;4.35;2.40;;;;;;;6.25;33.88;99723.75;6123736;23;20006;-76
2021/03/20 13:38:10;;;;;;;4.25;2.42;;;;;;;5.31;33.47;99723.88;6120243;23;19998;-76
2021/03/20 13:40:37;;;;;;;4.97;2.53;;;;;;;4.46;34.67;99730.75;6094249;23;20033;-74
2021/03/20 13:43:04;;;;;;;3.63;2.47;;;;;;;5.19;34.97;99723.66;6095060;23;20057;-74
2021/03/20 13:45:31;;;;;;;2.38;2.17;;;;;;;5.92;32.79;99719.84;6122008;23;20002;-72
2021/03/20 13:47:57;;;;;;;5.00;2.00;;;;;;;6.12;32.28;99711.56;6121572;23;19998;-73
2021/03/20 13:50:26;;;;;;;4.35;2.25;;;;;;;6.34;32.43;99729.03;6095873;23;20034;-73
2021/03/20 13:52:51;;;;;;;3.00;2.13;;;;;;;5.48;32.70;99720.78;6122519;23;20005;-70
2021/03/20 13:55:16;;;;;;;5.05;2.60;;;;;;;5.88;32.38;99727.44;6122120;23;20091;-71
2021/03/20 13:57:42;;;;;;;2.67;2.22;;;;;;;5.63;32.66;99721.88;6121843;23;20009;-68
2021/03/20 14:00:08;;;;;;;5.72;2.97;;;;;;;5.55;31.38;99727.72;6120937;23;20014;-68
2021/03/20 14:02:34;;;;;;;3.65;2.53;;;;;;;4.44;34.28;99736.66;6115719;23;20009;-68
2021/03/20 14:04:59;;;;;;;4.45;2.33;;;;;;;5.30;32.92;99727.28;6115201;23;20085;-64
2021/03/20 14:07:40;;;;;;;3.42;2.78;;;;;;;5.26;34.38;99735.78;6114261;23;20006;-71
2021/03/20 14:10:12;;;;;;;5.20;2.60;;;;;;;3.55;35.73;99747.38;6114318;23;20005;-71
2021/03/20 14:12:38;;;;;;;3.15;2.50;;;;;;;4.78;36.30;99744.25;6112233;23;20013;-73
2021/03/20 14:15:05;;;;;;;4.88;2.45;;;;;;;5.31;34.57;99734.16;6113067;23;20010;-73
2021/03/20 14:17:30;;;;;;;3.63;2.53;;;;;;;4.58;35.20;99736.13;6116863;23;20036;-69
2021/03/20 14:19:55;;;;;;;2.78;2.28;;;;;;;5.23;35.00;99735.75;6098076;23;20013;-68
2021/03/20 14:22:21;;;;;;;3.15;2.42;;;;;;;5.61;34.77;99726.16;6132524;23;20116;-69
2021/03/20 14:24:46;;;;;;;2.90;2.45;;;;;;;6.04;33.04;99724.28;6134055;23;20479;-69
2021/03/20 14:27:12;;;;;;;5.63;2.25;;;;;;;6.28;32.95;99722.94;6132101;23;20005;-69
2021/03/20 14:29:38;;;;;;;3.50;2.30;;;;;;;5.01;33.52;99733.59;6128350;23;20660;-69
2021/03/20 14:32:03;;;;;;;3.08;2.45;;;;;;;5.15;33.61;99732.16;6134178;23;20001;-67
2021/03/20 14:34:29;;;;;;;2.95;2.13;;;;;;;5.18;33.30;99723.66;6135164;23;20044;-67
2021/03/20 14:36:54;;;;;;;5.18;2.22;;;;;;;5.60;32.29;99720.97;6131463;23;20001;-69
2021/03/20 14:39:20;;;;;;;2.13;1.90;;;;;;;5.87;32.71;99713.72;6129400;23;20009;-67
2021/03/20 14:41:45;;;;;;;3.22;2.20;;;;;;;5.06;33.46;99730.28;6127233;23;20017;-69
2021/03/20 14:44:11;;;;;;;3.22;2.55;;;;;;;4.26;34.57;99734.59;6122216;23;20009;-69
2021/03/20 14:46:38;;;;;;;4.63;2.58;;;;;;;4.73;36.01;99738.16;6126206;23;20009;-67
2021/03/20 14:49:04;;;;;;;2.45;2.25;;;;;;;4.79;34.85;99738.31;6134763;23;20348;-69
2021/03/20 14:51:29;;;;;;;3.00;2.50;;;;;;;4.22;34.67;99733.63;6133308;23;20005;-69
2021/03/20 14:53:55;;;;;;;2.72;1.92;;;;;;;4.82;33.39;99722.94;6134721;23;20450;-67
2021/03/20 14:56:20;;;;;;;8.55;2.08;;;;;;;4.99;35.37;99730.13;6133576;23;20001;-67
2021/03/20 14:58:46;;;;;;;4.18;2.10;;;;;;;4.95;34.48;99723.19;6136558;23;20005;-67
2021/03/20 15:01:11;;;;;;;2.30;2.10;;;;;;;4.48;35.65;99735.91;6141106;23;20336;-67
2021/03/20 15:03:36;;;;;;;3.75;2.08;;;;;;;4.34;35.73;99736.47;6142038;23;20005;-67
2021/03/20 15:06:02;;;;;;;3.92;2.10;;;;;;;4.07;34.68;99723.91;6144129;23;20084;-67
2021/03/20 15:08:30;;;;;;;2.78;2.30;;;;;;;4.85;34.47;99717.88;6147101;23;20343;-69
2021/03/20 15:10:58;;;;;;;4.82;2.25;;;;;;;5.28;36.32;99713.56;6147752;23;20005;-69
2021/03/20 15:13:24;;;;;;;3.22;2.53;;;;;;;4.10;35.70;99711.13;6150519;23;20002;-69
2021/03/20 15:15:51;;;;;;;5.15;2.20;;;;;;;5.06;35.20;99706.28;6150843;23;20029;-70
2021/03/20 15:18:19;;;;;;;3.33;2.33;;;;;;;5.15;35.17;99698.75;6150384;23;20400;-70
2021/03/20 15:20:45;;;;;;;2.65;2.42;;;;;;;5.03;35.23;99701.09;6150640;23;20029;-71
2021/03/20 15:23:10;;;;;;;5.28;2.53;;;;;;;4.11;36.05;99709.44;6150402;23;20036;-70
2021/03/20 15:25:35;;;;;;;2.67;2.00;;;;;;;4.44;36.02;99709.31;6150602;23;20064;-70
2021/03/20 15:28:01;;;;;;;3.20;2.17;;;;;;;4.69;37.21;99705.59;6150456;23;20009;-70
2021/03/20 15:30:31;;;;;;;3.83;2.17;;;;;;;4.33;36.24;99714.22;6150870;23;20128;-70
2021/03/20 15:32:56;;;;;;;2.47;2.10;;;;;;;3.82;36.57;99722.44;6150552;23;20092;-70
2021/03/20 15:35:22;;;;;;;2.85;2.17;;;;;;;4.05;36.10;99714.41;6150496;23;20125;-70
2021/03/20 15:37:48;;;;;;;3.28;2.40;;;;;;;3.64;36.39;99728.81;6150395;23;20556;-70
2021/03/20 15:40:35;;;;;;;3.55;2.97;;;;;;;3.65;36.60;99731.41;6150456;23;20045;-70
2021/03/20 15:43:02;;;;;;;4.15;2.65;;;;;;;3.67;36.68;99727.19;6149872;23;20023;-70
2021/03/20 15:45:28;;;;;;;2.22;2.00;;;;;;;3.65;37.28;99723.72;6150355;23;20016;-70
2021/03/20 15:47:54;;;;;;;5.80;2.47;;;;;;;3.85;37.95;99722.50;6150177;23;20036;-70
2021/03/20 15:50:32;;;;;;;3.03;2.35;;;;;;;3.96;37.30;99711.63;6150359;23;20037;-70
2021/03/20 15:52:59;;;;;;;4.78;2.30;;;;;;;3.80;36.71;99712.97;6150025;23;20444;-70
2021/03/20 15:55:32;;;;;;;5.63;2.90;;;;;;;3.86;37.43;99708.00;6151022;23;20009;-70
2021/03/20 15:57:57;;;;;;;3.80;2.35;;;;;;;3.94;37.75;99708.19;6150384;23;20002;-70
2021/03/20 16:00:23;;;;;;;4.43;2.40;;;;;;;4.14;37.30;99714.63;6150372;23;20455;-70
2021/03/20 16:02:49;;;;;;;3.67;2.47;;;;;;;3.94;38.93;99705.63;6150043;23;20310;-70
2021/03/20 16:05:16;;;;;;;4.93;1.90;;;;;;;4.45;37.35;99705.94;6150110;23;20002;-70
2021/03/20 16:07:41;;;;;;;5.75;2.85;;;;;;;4.64;36.97;99705.47;6150058;23;20449;-70
2021/03/20 16:10:08;;;;;;;5.70;3.60;;;;;;;3.84;37.78;99707.97;6150142;23;20009;-70
2021/03/20 16:12:33;;;;;;;4.63;3.08;;;;;;;3.91;38.20;99702.97;6150187;23;20012;-70
2021/03/20 16:14:59;;;;;;;6.82;3.15;;;;;;;3.86;38.55;99713.13;6150165;23;20009;-70
2021/03/20 16:17:24;;;;;;;3.55;2.63;;;;;;;3.51;37.30;99714.81;6149811;23;20009;-70
2021/03/20 16:19:50;;;;;;;6.47;3.75;;;;;;;3.11;39.02;99713.78;6150154;23;20353;-70
2021/03/20 16:22:15;;;;;;;7.80;4.25;;;;;;;3.57;39.53;99709.84;6149884;23;20010;-70
2021/03/20 16:24:40;;;;;;;4.05;2.75;;;;;;;3.69;39.05;99707.59;6150066;23;20024;-70
2021/03/20 16:27:07;;;;;;;3.22;1.90;;;;;;;3.73;38.20;99696.59;6149919;23;20044;-70
2021/03/20 16:29:33;;;;;;;2.90;2.42;;;;;;;3.51;38.25;99704.56;6124010;23;20384;-70
2021/03/20 16:32:01;;;;;;;4.20;2.60;;;;;;;3.61;37.58;99706.53;6149713;23;20084;-71
2021/03/20 16:34:26;;;;;;;4.20;3.10;;;;;;;3.57;38.79;99709.84;6150119;23;20092;-71
2021/03/20 16:36:52;;;;;;;2.50;2.30;;;;;;;3.58;37.34;99696.22;6149921;23;20592;-71
2021/03/20 16:39:17;;;;;;;3.85;2.22;;;;;;;3.33;37.10;99698.13;6149860;23;20020;-71
2021/03/20 16:41:42;;;;;;;6.47;3.28;;;;;;;3.60;37.41;99704.81;6149800;23;20009;-68
2021/03/20 16:44:12;;;;;;;3.00;2.58;;;;;;;3.60;37.87;99704.81;6150269;23;20314;-69
2021/03/20 16:46:37;;;;;;;2.85;2.47;;;;;;;3.59;36.86;99703.06;6149846;23;20001;-70
2021/03/20 16:49:04;;;;;;;9.43;3.72;;;;;;;3.95;38.34;99697.09;6149890;23;20012;-71
2021/03/20 16:51:32;;;;;;;4.43;3.35;;;;;;;4.09;37.78;99691.44;6149728;23;20009;-70
2021/03/20 16:53:58;;;;;;;3.20;2.40;;;;;;;3.90;37.63;99693.56;6149818;23;20021;-70
2021/03/20 16:56:23;;;;;;;5.28;2.22;;;;;;;3.56;38.14;99698.72;6149725;23;20448;-69
2021/03/20 16:58:54;;;;;;;3.92;2.72;;;;;;;3.35;38.66;99704.19;6149904;23;20069;-69
2021/03/20 17:01:20;;;;;;;3.80;2.58;;;;;;;3.18;38.74;99705.44;6150037;23;20064;-70
2021/03/20 17:03:46;;;;;;;4.55;2.90;;;;;;;3.34;36.94;99707.59;6149827;23;20006;-70
2021/03/20 17:06:14;;;;;;;3.30;2.33;;;;;;;3.32;37.13;99704.09;6149926;23;20043;-69
2021/03/20 17:08:39;;;;;;;4.90;2.30;;;;;;;2.99;37.04;99709.19;6149776;23;20456;-69
2021/03/20 17:11:04;;;;;;;2.63;2.25;;;;;;;2.84;38.05;99704.50;6149074;23;20022;-69
2021/03/20 17:13:30;;;;;;;5.25;2.67;;;;;;;2.90;37.22;99708.06;6149750;23;20016;-69
2021/03/20 17:15:55;;;;;;;6.70;3.10;;;;;;;3.01;37.21;99716.94;6150284;23;20017;-69
2021/03/20 17:18:23;;;;;;;5.35;3.10;;;;;;;2.98;37.52;99714.28;6151283;23;20009;-69
2021/03/20 17:20:51;;;;;;;15.32;3.22;;;;;;;2.96;38.30;99721.91;6151869;23;20016;-69
2021/03/20 17:23:17;;;;;;;4.72;3.00;;;;;;;2.86;38.01;99719.06;6151851;23;20412;-69
2021/03/20 17:25:43;;;;;;;7.45;3.53;;;;;;;2.86;38.32;99716.50;6152089;23;20420;-70
2021/03/20 17:28:09;;;;;;;7.65;3.35;;;;;;;2.87;39.81;99720.78;6151489;23;20001;-73
2021/03/20 17:30:34;;;;;;;4.07;3.42;;;;;;;2.63;38.90;99719.28;6150903;23;20005;-74
2021/03/20 17:33:00;;;;;;;4.25;3.40;;;;;;;2.76;39.00;99721.38;6151467;23;20414;-70
2021/03/20 17:35:25;;;;;;;2.47;2.22;;;;;;;2.73;39.64;99720.41;6151910;23;20064;-69
2021/03/20 17:37:52;;;;;;;2.78;2.30;;;;;;;2.82;39.14;99718.97;6151664;23;20035;-69
2021/03/20 17:40:20;;;;;;;4.45;2.88;;;;;;;2.77;39.32;99717.13;6149385;23;20009;-67
2021/03/20 17:42:45;;;;;;;4.38;2.80;;;;;;;2.83;39.74;99712.16;6144348;23;20001;-69
2021/03/20 17:45:15;;;;;;;3.92;2.53;;;;;;;2.88;39.69;99715.72;6144799;23;20092;-72
2021/03/20 17:47:40;;;;;;;10.88;3.10;;;;;;;2.83;40.51;99710.47;6145014;23;20016;-69
2021/03/20 17:50:08;;;;;;;7.43;2.92;;;;;;;2.60;38.70;99715.75;6144951;23;20010;-69
2021/03/20 17:52:33;;;;;;;5.35;2.60;;;;;;;2.63;39.18;99709.03;6144527;23;20005;-70
2021/03/20 17:54:58;;;;;;;3.70;2.50;;;;;;;2.66;40.26;99713.34;6144643;23;20016;-69
2021/03/20 17:57:24;;;;;;;6.00;3.80;;;;;;;2.62;39.57;99714.13;6145324;23;20045;-70
2021/03/20 17:59:49;;;;;;;12.55;6.22;;;;;;;2.48;39.21;99724.81;6141225;23;20013;-69
2021/03/20 18:02:15;;;;;;;51.35;17.15;;;;;;;2.52;39.69;99711.28;6139320;23;20420;-70
2021/03/20 18:04:40;;;;;;;47.95;19.77;;;;;;;2.42;39.21;99716.97;6138426;23;20015;-70
2021/03/20 18:07:05;;;;;;;27.65;12.40;;;;;;;2.50;39.92;99715.47;6139574;23;20096;-70
2021/03/20 18:09:32;;;;;;;49.22;20.23;;;;;;;2.50;39.24;99717.16;6139150;23;20019;-70
2021/03/20 18:11:57;;;;;;;47.10;18.42;;;;;;;2.41;39.14;99722.00;6144054;23;20300;-70
2021/03/20 18:14:24;;;;;;;25.77;11.15;;;;;;;2.37;39.25;99720.19;6142623;23;20009;-70
2021/03/20 18:16:50;;;;;;;17.40;8.30;;;;;;;2.41;40.27;99709.22;6141480;23;20036;-70
2021/03/20 18:19:15;;;;;;;14.02;9.75;;;;;;;2.41;40.52;99712.66;6142069;23;20417;-70
2021/03/20 18:21:41;;;;;;;11.77;9.07;;;;;;;2.43;40.68;99712.72;6139745;23;20453;-70
2021/03/20 18:24:06;;;;;;;9.93;7.82;;;;;;;2.37;40.49;99709.94;6139494;23;20027;-70
2021/03/20 18:26:32;;;;;;;7.00;5.65;;;;;;;2.39;41.12;99709.19;6138480;23;20088;-70
2021/03/20 18:28:58;;;;;;;7.50;5.57;;;;;;;2.42;41.37;99710.97;6137727;23;20001;-70
2021/03/20 18:31:23;;;;;;;7.93;4.22;;;;;;;2.50;42.06;99710.38;6144615;23;20009;-70
2021/03/20 18:33:51;;;;;;;5.03;3.47;;;;;;;2.49;42.85;99715.44;6144391;23;20009;-70
2021/03/20 18:36:18;;;;;;;4.70;3.47;;;;;;;2.43;43.41;99715.28;6144698;23;20005;-70
2021/03/20 18:38:45;;;;;;;8.00;3.38;;;;;;;2.40;43.81;99704.94;6143235;23;20083;-70
2021/03/20 18:41:13;;;;;;;4.05;3.05;;;;;;;2.29;43.96;99710.59;6144011;23;20112;-70
2021/03/20 18:43:39;;;;;;;10.40;3.95;;;;;;;2.33;44.39;99715.81;6150422;23;20001;-70
2021/03/20 18:46:07;;;;;;;4.50;2.97;;;;;;;2.34;44.45;99717.56;6150907;23;20558;-70
2021/03/20 18:48:34;;;;;;;8.63;3.65;;;;;;;2.25;44.51;99711.34;6149185;23;20005;-70
2021/03/20 18:51:00;;;;;;;9.02;4.55;;;;;;;2.34;44.09;99702.22;6150661;23;20333;-70
2021/03/20 18:53:25;;;;;;;6.88;3.58;;;;;;;2.24;44.12;99703.63;6142592;23;20056;-70